createdAt,value
2022-12-05T00:01:13.630Z,102020.41
2022-12-05T00:03:41.587Z,102021.28
2022-12-05T00:06:09.615Z,102029.25
2022-12-05T00:08:37.532Z,102029.28
2022-12-05T00:11:05.516Z,102030.13
2022-12-05T00:13:33.404Z,102023.97
2022-12-05T00:16:02.695Z,102021.38
2022-12-05T00:18:30.643Z,102029.31
2022-12-05T00:20:58.534Z,102012.53
2022-12-05T00:23:26.421Z,102015.16
2022-12-05T00:25:54.361Z,102011.56
2022-12-05T00:28:22.277Z,102015.03
2022-12-05T00:30:50.219Z,102015.88
2022-12-05T00:33:19.492Z,102020.25
2022-12-05T00:35:47.420Z,102013.22
2022-12-05T00:38:15.316Z,102012.31
2022-12-05T00:40:43.184Z,102014.88
2022-12-05T00:43:11.108Z,102021.00
2022-12-05T00:45:39.077Z,102019.31
2022-12-05T00:48:07.268Z,102021.97
2022-12-05T00:50:36.585Z,102022.88
2022-12-05T00:53:04.485Z,102027.34
2022-12-05T00:55:32.371Z,102027.34
2022-12-05T00:58:00.258Z,102027.34
2022-12-05T01:00:28.182Z,102038.00
2022-12-05T01:02:56.797Z,102027.38
2022-12-05T01:05:24.750Z,102015.09
2022-12-05T01:07:54.304Z,102021.41
2022-12-05T01:10:22.252Z,102023.19
2022-12-05T01:12:50.280Z,102022.31
2022-12-05T01:15:18.264Z,102035.50
2022-12-05T01:17:46.181Z,102034.66
2022-12-05T01:20:14.125Z,102016.13
2022-12-05T01:22:42.066Z,102024.16
2022-12-05T01:25:11.596Z,102029.50
2022-12-05T01:27:39.460Z,102029.50
2022-12-05T01:30:08.673Z,102029.44
2022-12-05T01:32:36.579Z,102032.97
2022-12-05T01:35:04.671Z,102033.84
2022-12-05T01:37:32.622Z,102044.41
2022-12-05T01:40:00.714Z,102032.88
2022-12-05T01:42:29.993Z,102047.91
2022-12-05T01:45:07.691Z,102042.53
2022-12-05T01:47:36.593Z,102049.56
2022-12-05T01:50:04.966Z,102054.88
2022-12-05T01:52:32.915Z,102052.22
2022-12-05T01:55:04.756Z,102048.69
2022-12-05T01:57:34.053Z,102051.34
2022-12-05T02:00:04.138Z,102042.50
2022-12-05T02:02:32.080Z,102054.84
2022-12-05T02:05:03.042Z,102047.78
2022-12-05T02:07:31.221Z,102053.97
2022-12-05T02:09:59.362Z,102053.06
2022-12-05T02:12:27.497Z,102052.22
2022-12-05T02:15:04.871Z,102037.25
2022-12-05T02:17:37.242Z,102057.53
2022-12-05T02:20:11.223Z,102054.00
2022-12-05T02:22:52.055Z,102047.84
2022-12-05T02:25:41.575Z,102056.66
2022-12-05T02:28:23.272Z,102052.22
2022-12-05T02:30:54.198Z,102047.00
2022-12-05T02:33:23.337Z,102051.38
2022-12-05T02:35:53.803Z,102054.88
2022-12-05T02:38:27.101Z,102064.50
2022-12-05T02:41:01.045Z,102060.97
2022-12-05T02:43:31.936Z,102066.19
2022-12-05T02:46:02.359Z,102066.19
2022-12-05T02:48:30.355Z,102073.25
2022-12-05T02:50:58.669Z,102076.75
2022-12-05T02:53:26.740Z,102074.16
2022-12-05T02:55:54.642Z,102074.91
2022-12-05T02:58:24.849Z,102072.28
2022-12-05T03:00:55.333Z,102082.03
2022-12-05T03:03:24.646Z,102080.28
2022-12-05T03:05:55.549Z,102080.28
2022-12-05T03:08:24.617Z,102075.03
2022-12-05T03:10:52.871Z,102075.94
2022-12-05T03:13:22.243Z,102075.13
2022-12-05T03:15:50.656Z,102077.84
2022-12-05T03:18:20.014Z,102075.34
2022-12-05T03:20:49.783Z,102081.56
2022-12-05T03:23:19.530Z,102080.72
2022-12-05T03:25:50.753Z,102081.59
2022-12-05T03:28:20.279Z,102083.38
2022-12-05T03:30:48.267Z,102086.00
2022-12-05T03:33:16.706Z,102087.75
2022-12-05T03:35:45.831Z,102093.88
2022-12-05T03:38:16.253Z,102096.47
2022-12-05T03:40:45.833Z,102098.16
2022-12-05T03:43:17.208Z,102096.28
2022-12-05T03:45:46.194Z,102100.66
2022-12-05T03:48:16.244Z,102104.13
2022-12-05T03:50:45.451Z,102099.72
2022-12-05T03:53:20.916Z,102104.97
2022-12-05T03:55:54.467Z,102104.09
2022-12-05T03:58:24.291Z,102097.94
2022-12-05T04:00:52.339Z,102101.53
2022-12-05T04:03:22.144Z,102109.56
2022-12-05T04:05:51.198Z,102109.59
2022-12-05T04:08:21.394Z,102110.63
2022-12-05T04:10:50.649Z,102122.94
2022-12-05T04:13:20.029Z,102117.59
2022-12-05T04:16:08.448Z,102116.69
2022-12-05T04:18:37.807Z,102121.16
2022-12-05T04:21:23.176Z,102125.59
2022-12-05T04:24:13.757Z,102121.22
2022-12-05T04:26:43.406Z,102120.41
2022-12-05T04:29:13.162Z,102123.97
2022-12-05T04:31:42.695Z,102126.66
2022-12-05T04:34:12.170Z,102127.53
2022-12-05T04:36:41.175Z,102109.06
2022-12-05T04:39:17.763Z,102131.09
2022-12-05T04:41:48.238Z,102129.44
2022-12-05T04:44:18.897Z,102119.72
2022-12-05T04:46:46.858Z,102124.19
2022-12-05T04:49:17.173Z,102122.44
2022-12-05T04:51:45.118Z,102121.59
2022-12-05T04:54:16.127Z,102125.19
2022-12-05T04:56:44.322Z,102123.53
2022-12-05T04:59:12.246Z,102124.47
2022-12-05T05:01:41.227Z,102125.34
2022-12-05T05:04:10.636Z,102120.13
2022-12-05T05:06:38.719Z,102127.94
2022-12-05T05:09:06.628Z,102125.28
2022-12-05T05:11:36.176Z,102126.22
2022-12-05T05:14:04.314Z,102133.19
2022-12-05T05:16:33.556Z,102134.09
2022-12-05T05:19:01.459Z,102127.03
2022-12-05T05:21:30.110Z,102133.25
2022-12-05T05:23:58.350Z,102130.63
2022-12-05T05:26:26.449Z,102139.47
2022-12-05T05:28:55.797Z,102124.50
2022-12-05T05:31:23.773Z,102135.03
2022-12-05T05:33:51.919Z,102141.16
2022-12-05T05:36:20.035Z,102144.66
2022-12-05T05:38:49.263Z,102151.69
2022-12-05T05:41:18.251Z,102140.22
2022-12-05T05:43:46.481Z,102140.25
2022-12-05T05:46:15.949Z,102137.63
2022-12-05T05:48:43.904Z,102147.28
2022-12-05T05:51:14.970Z,102148.19
2022-12-05T05:53:42.912Z,102150.84
2022-12-05T05:56:15.953Z,102155.25
2022-12-05T05:58:48.123Z,102161.41
2022-12-05T06:01:18.895Z,102159.63
2022-12-05T06:03:46.943Z,102164.94
2022-12-05T06:06:15.583Z,102167.56
2022-12-05T06:08:44.185Z,102163.97
2022-12-05T06:11:13.429Z,102177.16
2022-12-05T06:13:41.389Z,102175.34
2022-12-05T06:16:10.580Z,102166.53
2022-12-05T06:18:39.891Z,102180.53
2022-12-05T06:21:11.805Z,102177.88
2022-12-05T06:23:43.977Z,102175.25
2022-12-05T06:26:12.234Z,102174.38
2022-12-05T06:28:40.547Z,102182.31
2022-12-05T06:31:09.867Z,102182.31
2022-12-05T06:33:39.263Z,102164.78
2022-12-05T06:36:08.117Z,102185.81
2022-12-05T06:38:40.539Z,102188.50
2022-12-05T06:41:10.977Z,102183.19
2022-12-05T06:43:38.927Z,102179.63
2022-12-05T06:46:07.262Z,102170.84
2022-12-05T06:48:35.284Z,102176.13
2022-12-05T06:51:07.015Z,102176.97
2022-12-05T06:53:34.911Z,102174.34
2022-12-05T06:56:03.587Z,102172.50
2022-12-05T06:58:31.587Z,102170.75
2022-12-05T07:01:16.843Z,102185.72
2022-12-05T07:03:45.146Z,102181.34
2022-12-05T07:06:14.459Z,102192.81
2022-12-05T07:08:42.586Z,102195.47
2022-12-05T07:11:10.553Z,102200.72
2022-12-05T07:13:38.490Z,102189.25
2022-12-05T07:16:08.538Z,102192.75
2022-12-05T07:18:36.558Z,102198.91
2022-12-05T07:21:13.610Z,102203.25
2022-12-05T07:23:43.694Z,102209.44
2022-12-05T07:26:12.986Z,102211.22
2022-12-05T07:28:40.946Z,102214.78
2022-12-05T07:31:09.970Z,102212.97
2022-12-05T07:33:37.996Z,102220.06
2022-12-05T07:36:07.173Z,102225.31
2022-12-05T07:38:35.211Z,102220.88
2022-12-05T07:41:12.731Z,102226.19
2022-12-05T07:43:41.799Z,102228.84
2022-12-05T07:46:11.443Z,102235.00
2022-12-05T07:48:39.663Z,102227.91
2022-12-05T07:51:08.309Z,102227.00
2022-12-05T07:53:36.344Z,102228.75
2022-12-05T07:56:04.923Z,102238.41
2022-12-05T07:58:36.014Z,102238.38
2022-12-05T08:01:07.631Z,102240.13
2022-12-05T08:03:35.578Z,102241.00
2022-12-05T08:06:04.528Z,102236.56
2022-12-05T08:08:33.016Z,102243.59
2022-12-05T08:11:04.514Z,102240.13
2022-12-05T08:13:32.583Z,102250.72
2022-12-05T08:16:03.881Z,102256.88
2022-12-05T08:18:31.860Z,102248.94
2022-12-05T08:21:03.050Z,102248.94
2022-12-05T08:23:31.896Z,102252.50
2022-12-05T08:26:03.131Z,102249.88
2022-12-05T08:28:31.137Z,102254.28
2022-12-05T08:31:06.066Z,102259.56
2022-12-05T08:33:34.091Z,102259.56
2022-12-05T08:36:03.384Z,102267.50
2022-12-05T08:38:31.442Z,102261.25
2022-12-05T08:41:01.838Z,102263.84
2022-12-05T08:43:30.017Z,102259.38
2022-12-05T08:45:58.043Z,102271.63
2022-12-05T08:48:29.399Z,102277.78
2022-12-05T08:50:57.804Z,102270.66
2022-12-05T08:53:25.730Z,102274.16
2022-12-05T08:55:53.689Z,102276.75
2022-12-05T08:58:21.704Z,102274.03
2022-12-05T09:00:49.609Z,102278.41
2022-12-05T09:03:17.558Z,102270.44
2022-12-05T09:05:46.860Z,102273.97
2022-12-05T09:08:14.863Z,102273.97
2022-12-05T09:10:42.887Z,102269.47
2022-12-05T09:13:10.875Z,102266.78
2022-12-05T09:15:39.895Z,102270.25
2022-12-05T09:18:07.917Z,102274.63
2022-12-05T09:20:35.857Z,102279.03
2022-12-05T09:23:05.203Z,102272.75
2022-12-05T09:25:33.930Z,102282.50
2022-12-05T09:28:01.901Z,102279.84
2022-12-05T09:30:29.809Z,102275.38
2022-12-05T09:32:57.746Z,102278.00
2022-12-05T09:35:25.660Z,102276.22
2022-12-05T09:37:57.080Z,102279.72
2022-12-05T09:40:26.426Z,102289.47
2022-12-05T09:43:00.079Z,102277.97
2022-12-05T09:45:30.221Z,102293.84
2022-12-05T09:48:00.648Z,102291.13
2022-12-05T09:50:29.336Z,102283.16
2022-12-05T09:53:05.842Z,102295.53
2022-12-05T09:55:41.492Z,102305.25
2022-12-05T09:58:18.014Z,102303.50
2022-12-05T10:00:45.947Z,102306.13
2022-12-05T10:03:20.182Z,102305.22
2022-12-05T10:05:49.515Z,102296.41
2022-12-05T10:08:20.855Z,102317.50
2022-12-05T10:10:57.313Z,102324.56
2022-12-05T10:13:46.888Z,102325.41
2022-12-05T10:18:46.208Z,102322.75
2022-12-05T10:21:17.214Z,102330.69
2022-12-05T10:23:58.355Z,102328.88
2022-12-05T10:26:30.004Z,102334.16
2022-12-05T10:29:00.340Z,102329.75
2022-12-05T10:31:29.405Z,102338.63
2022-12-05T10:34:00.524Z,102330.66
2022-12-05T10:36:29.702Z,102339.47
2022-12-05T10:38:58.025Z,102337.69
2022-12-05T10:41:28.688Z,102337.69
2022-12-05T10:43:56.621Z,102348.25
2022-12-05T10:46:24.587Z,102342.88
2022-12-05T10:48:52.526Z,102342.88
2022-12-05T10:51:24.770Z,102333.19
2022-12-05T10:53:52.854Z,102339.31
2022-12-05T10:56:42.383Z,102334.88
2022-12-05T10:59:11.296Z,102335.72
2022-12-05T11:01:39.781Z,102348.06
2022-12-05T11:04:13.886Z,102332.97
2022-12-05T11:06:41.975Z,102335.63
2022-12-05T11:09:15.555Z,102329.38
2022-12-05T11:11:44.859Z,102334.72
2022-12-05T11:14:23.372Z,102328.53
2022-12-05T11:16:54.248Z,102328.50
2022-12-05T11:19:27.450Z,102329.38
2022-12-05T11:21:56.062Z,102332.03
2022-12-05T11:24:31.373Z,102324.91
2022-12-05T11:27:01.324Z,102326.59
2022-12-05T11:29:30.642Z,102329.19
2022-12-05T11:31:58.660Z,102323.81
2022-12-05T11:34:27.913Z,102318.53
2022-12-05T11:36:57.433Z,102320.31
2022-12-05T11:39:25.452Z,102311.44
2022-12-05T11:42:14.677Z,102322.84
2022-12-05T11:45:01.484Z,102313.09
2022-12-05T11:47:39.845Z,102316.59
2022-12-05T11:50:18.270Z,102329.91
2022-12-05T11:52:53.426Z,102325.47
2022-12-05T11:55:22.885Z,102331.72
2022-12-05T11:58:03.239Z,102316.66
2022-12-05T12:00:33.920Z,102319.31
2022-12-05T12:03:33.382Z,102325.50
2022-12-05T12:06:25.358Z,102318.44
2022-12-05T12:09:17.310Z,102313.06
2022-12-05T12:11:48.023Z,102310.44
2022-12-05T12:14:20.896Z,102313.06
2022-12-05T12:16:54.267Z,102305.97
2022-12-05T12:19:40.653Z,102306.84
2022-12-05T12:22:17.051Z,102303.31
2022-12-05T12:24:57.821Z,102296.19
2022-12-05T12:27:32.951Z,102292.69
2022-12-05T12:30:04.822Z,102274.16
2022-12-05T12:32:36.290Z,102290.88
2022-12-05T12:35:21.155Z,102278.47
2022-12-05T12:37:53.062Z,102272.25
2022-12-05T12:40:23.220Z,102265.91
2022-12-05T12:42:57.681Z,102264.94
2022-12-05T12:45:52.734Z,102270.09
2022-12-05T12:48:32.911Z,102270.78
2022-12-05T12:51:01.273Z,102264.41
2022-12-05T12:53:53.797Z,102262.38
2022-12-05T12:56:28.011Z,102256.91
2022-12-05T12:58:59.102Z,102256.91
2022-12-05T13:01:33.094Z,102252.44
2022-12-05T13:04:04.413Z,102254.16
2022-12-05T13:06:35.061Z,102257.75
2022-12-05T13:09:04.537Z,102257.78
2022-12-05T13:11:36.504Z,102258.69
2022-12-05T13:14:04.463Z,102262.22
2022-12-05T13:16:37.118Z,102250.66
2022-12-05T13:19:06.953Z,102246.19
2022-12-05T13:21:34.946Z,102255.88
2022-12-05T13:24:03.767Z,102246.06
2022-12-05T13:26:32.007Z,102247.72
2022-12-05T13:29:00.861Z,102236.91
2022-12-05T13:31:41.361Z,102239.38
2022-12-05T13:34:35.241Z,102241.50
2022-12-05T13:37:29.624Z,102230.94
2022-12-05T13:40:18.391Z,102199.56
2022-12-05T13:42:48.064Z,102221.19
2022-12-05T13:45:17.751Z,102225.44
2022-12-05T13:47:52.880Z,102228.84
2022-12-05T13:50:22.970Z,102224.19
2022-12-05T13:52:54.091Z,102228.47
2022-12-05T13:55:29.527Z,102239.13
2022-12-05T13:58:00.537Z,102235.53
2022-12-05T14:00:34.131Z,102227.66
2022-12-05T14:03:08.458Z,102213.13
2022-12-05T14:05:44.532Z,102235.81
2022-12-05T14:08:48.029Z,102233.97
2022-12-05T14:11:16.063Z,102237.19
2022-12-05T14:13:45.035Z,102237.50
2022-12-05T14:16:44.369Z,102247.63
2022-12-05T14:19:34.433Z,102221.22
2022-12-05T14:22:08.383Z,102226.69
2022-12-05T14:24:38.367Z,102240.19
2022-12-05T14:27:08.662Z,102244.13
2022-12-05T14:29:41.069Z,102243.44
2022-12-05T14:32:20.109Z,102236.91
2022-12-05T14:34:55.198Z,102229.69
2022-12-05T14:37:27.483Z,102246.19
2022-12-05T14:39:56.121Z,102241.97
2022-12-05T14:42:27.409Z,102239.53
2022-12-05T14:44:56.448Z,102234.50
2022-12-05T14:47:25.219Z,102240.06
2022-12-05T14:50:02.568Z,102247.38
2022-12-05T14:52:31.833Z,102247.44
2022-12-05T14:55:02.738Z,102258.19
2022-12-05T14:57:30.627Z,102254.88
2022-12-05T14:59:59.984Z,102250.56
2022-12-05T15:02:29.171Z,102250.59
2022-12-05T15:05:00.805Z,102256.97
2022-12-05T15:07:35.307Z,102252.59
2022-12-05T15:10:05.104Z,102258.81
2022-12-05T15:12:36.973Z,102257.91
2022-12-05T15:15:08.832Z,102263.25
2022-12-05T15:17:42.902Z,102250.03
2022-12-05T15:20:17.364Z,102264.34
2022-12-05T15:22:45.279Z,102270.69
2022-12-05T15:25:21.552Z,102261.09
2022-12-05T15:27:54.846Z,102276.22
2022-12-05T15:30:22.799Z,102275.34
2022-12-05T15:32:53.779Z,102278.94
2022-12-05T15:35:27.500Z,102277.22
2022-12-05T15:37:57.150Z,102267.50
2022-12-05T15:40:26.251Z,102270.13
2022-12-05T15:42:54.786Z,102278.09
2022-12-05T15:45:24.429Z,102287.06
2022-12-05T15:47:54.160Z,102293.28
2022-12-05T15:50:25.446Z,102289.75
2022-12-05T15:52:56.471Z,102289.78
2022-12-05T15:55:27.699Z,102295.16
2022-12-05T15:57:57.038Z,102298.75
2022-12-05T16:00:26.181Z,102303.22
2022-12-05T16:02:55.582Z,102296.22
2022-12-05T16:05:25.279Z,102298.84
2022-12-05T16:07:54.912Z,102302.44
2022-12-05T16:10:29.116Z,102306.88
2022-12-05T16:12:57.646Z,102298.03
2022-12-05T16:15:26.277Z,102306.06
2022-12-05T16:17:55.266Z,102300.84
2022-12-05T16:20:25.950Z,102310.59
2022-12-05T16:22:56.245Z,102310.63
2022-12-05T16:25:25.543Z,102300.84
2022-12-05T16:28:04.756Z,102292.03
2022-12-05T16:30:32.697Z,102298.19
2022-12-05T16:33:03.384Z,102298.22
2022-12-05T16:35:38.815Z,102298.22
2022-12-05T16:38:15.700Z,102297.34
2022-12-05T16:40:52.293Z,102297.34
2022-12-05T16:43:22.239Z,102292.03
2022-12-05T16:45:50.294Z,102294.69
2022-12-05T16:48:25.106Z,102290.22
2022-12-05T16:50:53.809Z,102302.63
2022-12-05T16:53:30.422Z,102300.84
2022-12-05T16:55:59.011Z,102310.63
2022-12-05T16:58:27.675Z,102313.28
2022-12-05T17:01:00.779Z,102307.97
2022-12-05T17:03:36.283Z,102299.16
2022-12-05T17:06:04.585Z,102297.47
2022-12-05T17:08:33.924Z,102308.13
2022-12-05T17:11:03.774Z,102303.81
2022-12-05T17:13:32.024Z,102318.03
2022-12-05T17:16:00.038Z,102309.22
2022-12-05T17:18:31.512Z,102319.94
2022-12-05T17:21:01.044Z,102321.81
2022-12-05T17:23:28.955Z,102320.91
2022-12-05T17:25:58.864Z,102321.88
2022-12-05T17:28:26.864Z,102328.94
2022-12-05T17:30:54.758Z,102327.16
2022-12-05T17:33:22.682Z,102325.38
2022-12-05T17:35:52.046Z,102335.09
2022-12-05T17:38:19.960Z,102349.22
2022-12-05T17:40:48.032Z,102329.00
2022-12-05T17:43:23.048Z,102354.47
2022-12-05T17:45:54.599Z,102354.44
2022-12-05T17:48:22.608Z,102337.75
2022-12-05T17:50:50.588Z,102357.00
2022-12-05T17:53:19.440Z,102358.78
2022-12-05T17:55:48.765Z,102358.69
2022-12-05T17:58:18.382Z,102355.16
2022-12-05T18:00:46.751Z,102356.03
2022-12-05T18:03:16.230Z,102352.44
2022-12-05T18:05:44.678Z,102355.09
2022-12-05T18:08:12.764Z,102356.84
2022-12-05T18:10:42.104Z,102355.88
2022-12-05T18:13:10.032Z,102363.00
2022-12-05T18:15:42.712Z,102368.31
2022-12-05T18:18:12.813Z,102371.81
2022-12-05T18:20:40.718Z,102369.16
2022-12-05T18:23:08.734Z,102364.69
2022-12-05T18:25:36.697Z,102367.34
2022-12-05T18:28:04.760Z,102377.06
2022-12-05T18:30:33.476Z,102387.69
2022-12-05T18:33:02.785Z,102390.34
2022-12-05T18:35:42.681Z,102392.13
2022-12-05T18:38:11.114Z,102398.41
2022-12-05T18:40:39.088Z,102398.38
2022-12-05T18:43:07.167Z,102395.69
2022-12-05T18:45:35.151Z,102389.47
2022-12-05T18:48:23.351Z,102384.13
2022-12-05T18:50:52.888Z,102389.44
2022-12-05T18:53:21.107Z,102382.38
2022-12-05T18:56:13.506Z,102381.50
2022-12-05T18:58:37.077Z,102374.41
2022-12-05T19:01:07.199Z,102367.34
2022-12-05T19:03:36.711Z,102372.72
2022-12-05T19:06:12.335Z,102378.00
2022-12-05T19:08:40.236Z,102375.34
2022-12-05T19:11:08.237Z,102381.53
2022-12-05T19:13:36.461Z,102387.69
2022-12-05T19:16:04.498Z,102393.91
2022-12-05T19:18:32.528Z,102387.69
2022-12-05T19:21:01.859Z,102393.00
2022-12-05T19:23:29.976Z,102403.66
2022-12-05T19:26:00.726Z,102394.78
2022-12-05T19:28:29.129Z,102404.53
2022-12-05T19:31:00.870Z,102407.16
2022-12-05T19:33:35.590Z,102410.69
2022-12-05T19:36:06.169Z,102408.94
2022-12-05T19:38:35.015Z,102407.16
2022-12-05T19:41:03.096Z,102411.63
2022-12-05T19:43:31.257Z,102416.06
2022-12-05T19:45:59.359Z,102415.19
2022-12-05T19:48:27.669Z,102424.06
2022-12-05T19:50:56.600Z,102415.19
2022-12-05T19:53:26.232Z,102424.94
2022-12-05T19:55:54.121Z,102432.00
2022-12-05T19:58:22.167Z,102423.09
2022-12-05T20:00:52.518Z,102430.19
2022-12-05T20:03:20.719Z,102439.00
2022-12-05T20:05:57.601Z,102430.94
2022-12-05T20:08:26.963Z,102443.31
2022-12-05T20:10:55.277Z,102444.19
2022-12-05T20:13:45.756Z,102449.53
2022-12-05T20:16:12.676Z,102445.09
2022-12-05T20:18:41.231Z,102447.78
2022-12-05T20:21:09.955Z,102441.59
2022-12-05T20:23:39.510Z,102448.72
2022-12-05T20:26:09.469Z,102450.50
2022-12-05T20:28:37.540Z,102461.22
2022-12-05T20:31:07.034Z,102449.72
2022-12-05T20:33:35.218Z,102455.94
2022-12-05T20:36:04.483Z,102443.56
2022-12-05T20:38:32.626Z,102453.34
2022-12-05T20:41:02.205Z,102455.13
2022-12-05T20:43:30.135Z,102453.41
2022-12-05T20:45:58.140Z,102450.75
2022-12-05T20:48:26.997Z,102456.94
2022-12-05T20:50:55.379Z,102450.78
2022-12-05T20:53:23.353Z,102460.53
2022-12-05T20:55:51.560Z,102455.31
2022-12-05T20:58:21.742Z,102455.44
2022-12-05T21:00:49.866Z,102449.34
2022-12-05T21:03:17.777Z,102446.81
2022-12-05T21:05:45.792Z,102451.25
2022-12-05T21:08:14.095Z,102442.41
2022-12-05T21:10:45.299Z,102449.50
2022-12-05T21:13:13.243Z,102447.72
2022-12-05T21:15:42.648Z,102453.91
2022-12-05T21:18:10.605Z,102461.84
2022-12-05T21:20:42.101Z,102457.38
2022-12-05T21:23:10.355Z,102461.75
2022-12-05T21:25:38.301Z,102467.09
2022-12-05T21:28:06.294Z,102470.63
2022-12-05T21:30:35.450Z,102464.44
2022-12-05T21:33:05.600Z,102464.44
2022-12-05T21:35:33.578Z,102463.56
2022-12-05T21:38:01.619Z,102468.00
2022-12-05T21:40:29.827Z,102468.00
2022-12-05T21:42:57.769Z,102461.81
2022-12-05T21:45:25.827Z,102457.38
2022-12-05T21:47:53.879Z,102466.22
2022-12-05T21:50:23.244Z,102461.81
2022-12-05T21:52:51.183Z,102466.19
2022-12-05T21:55:19.091Z,102453.78
2022-12-05T21:57:47.251Z,102465.34
2022-12-05T22:00:15.786Z,102455.63
2022-12-05T22:02:43.748Z,102452.97
2022-12-05T22:05:11.702Z,102457.44
2022-12-05T22:07:41.008Z,102459.22
2022-12-05T22:10:09.457Z,102459.22
2022-12-05T22:12:37.487Z,102450.38
2022-12-05T22:15:06.203Z,102448.66
2022-12-05T22:17:34.167Z,102448.69
2022-12-05T22:20:02.372Z,102440.78
2022-12-05T22:22:30.489Z,102433.66
2022-12-05T22:25:00.249Z,102427.53
2022-12-05T22:27:28.358Z,102434.72
2022-12-05T22:29:56.337Z,102426.88
2022-12-05T22:32:24.304Z,102430.44
2022-12-05T22:34:52.220Z,102429.59
2022-12-05T22:37:20.134Z,102434.97
2022-12-05T22:39:48.067Z,102436.78
2022-12-05T22:42:17.333Z,102428.88
2022-12-05T22:44:45.269Z,102434.16
2022-12-05T22:47:13.166Z,102425.28
2022-12-05T22:49:41.100Z,102429.75
2022-12-05T22:52:09.003Z,102428.88
2022-12-05T22:54:36.937Z,102431.56
2022-12-05T22:57:04.936Z,102438.69
2022-12-05T22:59:34.318Z,102430.78
2022-12-05T23:02:02.317Z,102424.66
2022-12-05T23:04:30.373Z,102422.06
2022-12-05T23:06:58.371Z,102427.38
2022-12-05T23:09:27.096Z,102427.44
2022-12-05T23:11:54.988Z,102421.34
2022-12-05T23:14:22.943Z,102423.09
2022-12-05T23:16:52.242Z,102419.59
2022-12-05T23:19:20.137Z,102422.25
2022-12-05T23:21:48.045Z,102415.16
2022-12-05T23:24:15.952Z,102426.69
2022-12-05T23:26:44.962Z,102435.56
2022-12-05T23:29:13.190Z,102432.97
2022-12-05T23:31:41.240Z,102418.91
2022-12-05T23:34:11.037Z,102426.03
2022-12-05T23:36:38.938Z,102424.31
2022-12-05T23:39:07.110Z,102425.25
2022-12-05T23:41:35.044Z,102427.03
2022-12-05T23:44:02.969Z,102427.13
2022-12-05T23:46:30.940Z,102434.16
2022-12-05T23:48:58.884Z,102428.06
2022-12-05T23:51:28.968Z,102429.81
2022-12-05T23:53:57.636Z,102431.59
2022-12-05T23:56:26.455Z,102428.09
2022-12-05T23:58:54.612Z,102427.22
